createdAt,value
2018-11-14T00:00:03.302Z,7.29
2018-11-14T00:02:31.647Z,7.27
2018-11-14T00:04:59.953Z,6.93
2018-11-14T00:07:28.260Z,6.79
2018-11-14T00:09:56.579Z,6.83
2018-11-14T00:12:24.897Z,6.81
2018-11-14T00:14:53.287Z,6.78
2018-11-14T00:17:21.589Z,6.62
2018-11-14T00:19:50.025Z,6.64
2018-11-14T00:22:18.360Z,6.72
2018-11-14T00:24:46.732Z,6.57
2018-11-14T00:27:14.942Z,6.74
2018-11-14T00:29:43.327Z,6.42
2018-11-14T00:32:11.626Z,6.79
2018-11-14T00:34:40.020Z,6.69
2018-11-14T00:37:08.309Z,6.78
2018-11-14T00:39:36.606Z,6.67
2018-11-14T00:42:05.166Z,6.90
2018-11-14T00:44:33.511Z,6.75
2018-11-14T00:47:02.067Z,6.63
2018-11-14T00:49:30.380Z,6.68
2018-11-14T00:51:58.652Z,6.77
2018-11-14T00:54:27.004Z,6.81
2018-11-14T00:56:55.364Z,6.88
2018-11-14T00:59:24.295Z,6.92
2018-11-14T01:01:52.589Z,7.11
2018-11-14T01:04:21.307Z,6.96
2018-11-14T01:06:49.640Z,6.93
2018-11-14T01:09:18.121Z,6.89
2018-11-14T01:11:46.353Z,6.98
2018-11-14T01:14:14.715Z,7.02
2018-11-14T01:16:43.046Z,7.22
2018-11-14T01:19:11.343Z,7.58
2018-11-14T01:21:39.715Z,7.63
2018-11-14T01:24:08.555Z,7.62
2018-11-14T01:26:36.847Z,7.71
2018-11-14T01:29:05.348Z,7.78
2018-11-14T01:31:33.798Z,7.62
2018-11-14T01:34:02.161Z,7.57
2018-11-14T01:36:30.399Z,7.60
2018-11-14T01:38:58.743Z,7.46
2018-11-14T01:41:27.095Z,7.29
2018-11-14T01:43:55.414Z,6.90
2018-11-14T01:46:23.733Z,6.77
2018-11-14T01:48:52.043Z,6.95
2018-11-14T01:51:20.368Z,6.73
2018-11-14T01:53:48.674Z,6.73
2018-11-14T01:56:16.952Z,6.63
2018-11-14T02:01:13.838Z,6.35
2018-11-14T02:03:42.135Z,6.08
2018-11-14T02:06:10.461Z,6.05
2018-11-14T02:08:38.759Z,5.99
2018-11-14T02:11:07.062Z,6.09
2018-11-14T02:13:35.391Z,6.18
2018-11-14T02:16:03.683Z,6.37
2018-11-14T02:18:31.982Z,6.21
2018-11-14T02:21:00.289Z,6.27
2018-11-14T02:23:28.573Z,6.15
2018-11-14T02:25:56.890Z,6.16
2018-11-14T02:28:25.193Z,6.47
2018-11-14T02:30:53.531Z,6.74
2018-11-14T02:33:21.814Z,6.99
2018-11-14T02:35:50.141Z,7.00
2018-11-14T02:38:18.430Z,7.17
2018-11-14T02:40:46.752Z,7.08
2018-11-14T02:43:15.051Z,6.87
2018-11-14T02:45:43.425Z,6.74
2018-11-14T02:48:11.730Z,6.76
2018-11-14T02:50:40.032Z,6.56
2018-11-14T02:53:08.312Z,6.60
2018-11-14T02:55:36.655Z,6.71
2018-11-14T02:58:05.194Z,6.78
2018-11-14T03:00:33.511Z,6.67
2018-11-14T03:03:01.829Z,6.51
2018-11-14T03:05:30.148Z,6.31
2018-11-14T03:07:58.467Z,6.50
2018-11-14T03:10:26.795Z,5.92
2018-11-14T03:12:55.097Z,6.04
2018-11-14T03:15:23.882Z,6.30
2018-11-14T03:17:52.225Z,6.26
2018-11-14T03:20:21.651Z,6.29
2018-11-14T03:22:49.962Z,6.14
2018-11-14T03:25:18.254Z,5.97
2018-11-14T03:27:46.573Z,5.89
2018-11-14T03:30:16.645Z,5.74
2018-11-14T03:32:45.414Z,5.78
2018-11-14T03:35:14.366Z,5.53
2018-11-14T03:37:42.712Z,5.30
2018-11-14T03:40:14.083Z,5.03
2018-11-14T03:42:42.500Z,4.94
2018-11-14T03:45:12.493Z,5.03
2018-11-14T03:47:41.334Z,5.01
2018-11-14T03:50:09.984Z,5.25
2018-11-14T03:52:38.332Z,5.59
2018-11-14T03:55:07.064Z,5.80
2018-11-14T03:57:35.445Z,5.50
2018-11-14T04:00:04.624Z,5.62
2018-11-14T04:02:32.947Z,5.53
2018-11-14T04:05:01.290Z,5.49
2018-11-14T04:07:29.580Z,5.55
2018-11-14T04:09:57.873Z,5.61
2018-11-14T04:12:26.276Z,5.53
2018-11-14T04:14:54.550Z,5.33
2018-11-14T04:17:22.864Z,5.40
2018-11-14T04:19:51.139Z,5.34
2018-11-14T04:22:19.479Z,5.17
2018-11-14T04:24:47.772Z,5.07
2018-11-14T04:27:16.068Z,5.19
2018-11-14T04:29:44.376Z,5.02
2018-11-14T04:32:12.736Z,5.16
2018-11-14T04:34:41.066Z,5.32
2018-11-14T04:37:09.414Z,5.33
2018-11-14T04:39:37.776Z,5.21
2018-11-14T04:42:06.102Z,5.33
2018-11-14T04:44:44.025Z,5.13
2018-11-14T04:47:15.611Z,5.44
2018-11-14T04:49:47.769Z,5.38
2018-11-14T04:52:18.752Z,5.36
2018-11-14T04:54:49.849Z,5.16
2018-11-14T04:57:20.690Z,5.21
2018-11-14T04:59:52.205Z,5.28
2018-11-14T05:02:23.590Z,5.51
2018-11-14T05:04:54.607Z,5.60
2018-11-14T05:07:25.458Z,5.66
2018-11-14T05:09:59.311Z,5.79
2018-11-14T05:12:30.599Z,5.59
2018-11-14T05:15:02.716Z,5.74
2018-11-14T05:17:33.578Z,5.52
2018-11-14T05:20:05.705Z,5.62
2018-11-14T05:22:37.898Z,5.65
2018-11-14T05:25:10.294Z,5.61
2018-11-14T05:27:43.717Z,5.53
2018-11-14T05:30:18.927Z,5.51
2018-11-14T05:32:50.730Z,5.40
2018-11-14T05:35:24.330Z,5.27
2018-11-14T05:37:56.818Z,4.86
2018-11-14T05:40:25.156Z,4.84
2018-11-14T05:42:53.716Z,4.92
2018-11-14T05:45:24.598Z,5.14
2018-11-14T05:47:53.037Z,4.94
2018-11-14T05:50:22.224Z,4.90
2018-11-14T05:52:50.589Z,4.71
2018-11-14T05:55:19.066Z,4.76
2018-11-14T05:57:47.415Z,4.87
2018-11-14T06:00:21.623Z,4.93
2018-11-14T06:02:49.936Z,5.06
2018-11-14T06:05:18.356Z,5.06
2018-11-14T06:07:46.664Z,5.14
2018-11-14T06:10:15.017Z,5.12
2018-11-14T06:12:43.761Z,5.05
2018-11-14T06:15:14.625Z,4.91
2018-11-14T06:17:43.940Z,5.28
2018-11-14T06:20:14.259Z,5.25
2018-11-14T06:22:43.407Z,5.66
2018-11-14T06:25:35.852Z,5.74
2018-11-14T06:28:05.445Z,5.98
2018-11-14T06:30:34.408Z,6.12
2018-11-14T06:33:04.163Z,6.12
2018-11-14T06:35:32.522Z,5.94
2018-11-14T06:38:00.875Z,6.22
2018-11-14T06:40:29.585Z,5.97
2018-11-14T06:42:58.496Z,6.01
2018-11-14T06:45:29.288Z,5.84
2018-11-14T06:47:59.085Z,5.49
2018-11-14T06:50:28.445Z,5.43
2018-11-14T06:53:01.655Z,5.59
2018-11-14T06:55:31.359Z,5.20
2018-11-14T06:57:59.993Z,5.30
2018-11-14T07:00:29.673Z,5.35
2018-11-14T07:02:58.708Z,5.35
2018-11-14T07:05:29.188Z,5.41
2018-11-14T07:07:58.194Z,5.49
2018-11-14T07:10:27.814Z,5.66
2018-11-14T07:13:01.635Z,5.66
2018-11-14T07:15:30.041Z,5.73
2018-11-14T07:17:58.473Z,5.83
2018-11-14T07:20:28.221Z,5.83
2018-11-14T07:22:56.539Z,5.84
2018-11-14T07:25:24.875Z,5.81
2018-11-14T07:27:53.391Z,5.82
2018-11-14T07:30:23.889Z,5.70
2018-11-14T07:32:54.749Z,6.04
2018-11-14T07:35:23.070Z,6.06
2018-11-14T07:38:56.034Z,6.18
2018-11-14T07:41:26.918Z,6.17
2018-11-14T07:43:55.503Z,6.14
2018-11-14T07:46:24.693Z,6.10
2018-11-14T07:48:53.024Z,6.18
2018-11-14T07:51:21.538Z,6.29
2018-11-14T07:53:49.936Z,6.39
2018-11-14T07:56:18.292Z,6.55
2018-11-14T07:58:46.619Z,6.88
2018-11-14T08:01:15.131Z,7.18
2018-11-14T08:03:43.756Z,7.33
2018-11-14T08:06:12.071Z,7.52
2018-11-14T08:08:40.418Z,7.66
2018-11-14T08:11:09.183Z,7.73
2018-11-14T08:13:39.091Z,7.90
2018-11-14T08:16:07.407Z,7.98
2018-11-14T08:18:35.787Z,7.97
2018-11-14T08:21:04.541Z,8.00
2018-11-14T08:23:32.886Z,7.99
2018-11-14T08:26:01.165Z,8.01
2018-11-14T08:28:29.505Z,8.07
2018-11-14T08:30:57.837Z,8.05
2018-11-14T08:33:26.224Z,8.01
2018-11-14T08:35:54.577Z,8.01
2018-11-14T08:38:22.903Z,8.02
2018-11-14T08:40:51.262Z,8.02
2018-11-14T08:43:19.697Z,8.07
2018-11-14T08:45:48.028Z,8.13
2018-11-14T08:48:16.380Z,8.20
2018-11-14T08:50:44.698Z,8.19
2018-11-14T08:53:12.999Z,8.21
2018-11-14T08:55:41.351Z,8.22
2018-11-14T08:58:11.178Z,8.39
2018-11-14T09:00:39.508Z,8.52
2018-11-14T09:03:09.331Z,8.55
2018-11-14T09:05:37.665Z,8.54
2018-11-14T09:08:06.039Z,8.55
2018-11-14T09:10:34.573Z,8.59
2018-11-14T09:13:02.973Z,8.59
2018-11-14T09:15:31.276Z,8.56
2018-11-14T09:17:59.744Z,8.67
2018-11-14T09:20:28.904Z,8.71
2018-11-14T09:22:57.187Z,8.72
2018-11-14T09:25:29.345Z,8.80
2018-11-14T09:27:58.140Z,8.84
2018-11-14T09:30:26.977Z,8.83
2018-11-14T09:32:55.699Z,8.91
2018-11-14T09:35:24.941Z,8.93
2018-11-14T09:37:54.286Z,8.99
2018-11-14T09:40:24.086Z,9.02
2018-11-14T09:42:52.418Z,9.04
2018-11-14T09:45:21.929Z,9.09
2018-11-14T09:47:50.246Z,9.16
2018-11-14T09:50:20.879Z,9.22
2018-11-14T09:52:52.669Z,9.23
2018-11-14T09:55:21.045Z,9.27
2018-11-14T09:57:49.387Z,9.28
2018-11-14T10:00:19.979Z,9.35
2018-11-14T10:02:49.761Z,9.49
2018-11-14T10:05:19.531Z,9.47
2018-11-14T10:07:47.975Z,9.54
2018-11-14T10:10:17.662Z,9.45
2018-11-14T10:12:45.965Z,9.68
2018-11-14T10:15:15.593Z,9.65
2018-11-14T10:17:44.806Z,9.67
2018-11-14T10:20:14.208Z,9.62
2018-11-14T10:22:43.047Z,9.55
2018-11-14T10:25:12.139Z,9.57
2018-11-14T10:27:41.295Z,9.61
2018-11-14T10:30:14.101Z,9.71
2018-11-14T10:32:43.238Z,9.63
2018-11-14T10:35:11.919Z,9.71
2018-11-14T10:37:40.449Z,9.76
2018-11-14T10:40:12.678Z,9.69
2018-11-14T10:42:41.581Z,9.72
2018-11-14T10:45:11.359Z,9.75
2018-11-14T10:47:39.722Z,9.65
2018-11-14T10:50:13.259Z,9.77
2018-11-14T10:52:41.595Z,9.71
2018-11-14T10:55:11.044Z,9.78
2018-11-14T10:57:39.691Z,9.78
2018-11-14T11:01:17.419Z,9.79
2018-11-14T11:03:51.191Z,9.77
2018-11-14T11:06:34.854Z,9.82
2018-11-14T11:09:09.910Z,9.87
2018-11-14T11:11:43.698Z,9.89
2018-11-14T11:14:17.232Z,9.94
2018-11-14T11:16:50.923Z,10.04
2018-11-14T11:19:21.423Z,10.14
2018-11-14T11:21:49.896Z,10.31
2018-11-14T11:24:19.512Z,10.10
2018-11-14T11:26:47.858Z,10.07
2018-11-14T11:29:16.244Z,10.07
2018-11-14T11:31:44.603Z,10.17
2018-11-14T11:34:13.327Z,10.12
2018-11-14T11:36:41.880Z,10.12
2018-11-14T11:39:14.607Z,10.13
2018-11-14T11:41:43.570Z,10.19
2018-11-14T11:44:12.016Z,10.21
2018-11-14T11:46:41.310Z,10.14
2018-11-14T11:49:10.054Z,10.22
2018-11-14T11:51:38.447Z,10.24
2018-11-14T11:54:07.374Z,10.26
2018-11-14T11:56:36.067Z,10.28
2018-11-14T11:59:04.819Z,10.20
2018-11-14T12:01:33.146Z,10.23
2018-11-14T12:04:01.502Z,10.26
2018-11-14T12:06:29.848Z,10.24
2018-11-14T12:08:58.288Z,10.26
2018-11-14T12:11:26.592Z,10.23
2018-11-14T12:13:55.091Z,10.21
2018-11-14T12:16:23.554Z,10.15
2018-11-14T12:18:51.920Z,10.20
2018-11-14T12:21:20.226Z,10.21
2018-11-14T12:23:48.583Z,10.24
2018-11-14T12:26:16.940Z,10.23
2018-11-14T12:28:45.373Z,10.31
2018-11-14T12:31:13.874Z,10.38
2018-11-14T12:33:42.177Z,10.57
2018-11-14T12:36:10.512Z,10.57
2018-11-14T12:38:38.904Z,10.74
2018-11-14T12:41:07.264Z,10.64
2018-11-14T12:43:35.654Z,10.72
2018-11-14T12:46:04.304Z,10.78
2018-11-14T12:48:32.664Z,10.85
2018-11-14T12:51:01.132Z,10.90
2018-11-14T12:53:29.403Z,10.90
2018-11-14T12:55:57.827Z,10.98
2018-11-14T12:58:26.176Z,10.91
2018-11-14T13:00:54.558Z,10.90
2018-11-14T13:03:22.835Z,10.84
2018-11-14T13:05:51.188Z,10.83
2018-11-14T13:08:19.507Z,10.73
2018-11-14T13:10:47.806Z,10.70
2018-11-14T13:13:16.096Z,10.65
2018-11-14T13:15:44.478Z,10.65
2018-11-14T13:18:15.656Z,10.74
2018-11-14T13:20:43.931Z,10.67
2018-11-14T13:23:12.300Z,10.69
2018-11-14T13:25:40.615Z,10.63
2018-11-14T13:28:09.092Z,10.62
2018-11-14T13:30:37.651Z,10.66
2018-11-14T13:33:06.342Z,10.71
2018-11-14T13:35:34.858Z,10.57
2018-11-14T13:38:03.243Z,10.54
2018-11-14T13:40:31.659Z,10.46
2018-11-14T13:43:00.338Z,10.45
2018-11-14T13:45:28.684Z,10.39
2018-11-14T13:47:57.079Z,10.28
2018-11-14T13:50:25.470Z,10.23
2018-11-14T13:52:53.773Z,10.22
2018-11-14T13:55:22.162Z,10.19
2018-11-14T13:57:51.687Z,10.15
2018-11-14T14:00:21.266Z,10.13
2018-11-14T14:02:50.512Z,10.16
2018-11-14T14:05:20.104Z,10.12
2018-11-14T14:07:48.566Z,10.09
2018-11-14T14:10:17.614Z,10.04
2018-11-14T14:12:47.296Z,9.99
2018-11-14T14:15:21.241Z,9.95
2018-11-14T14:17:50.088Z,9.86
2018-11-14T14:20:19.038Z,9.72
2018-11-14T14:22:47.559Z,9.67
2018-11-14T14:25:17.135Z,9.56
2018-11-14T14:27:45.494Z,9.50
2018-11-14T14:30:16.134Z,9.40
2018-11-14T14:32:45.112Z,9.30
2018-11-14T14:35:14.517Z,9.26
2018-11-14T14:37:42.884Z,9.15
2018-11-14T14:40:14.321Z,9.10
2018-11-14T14:42:42.759Z,9.04
2018-11-14T14:45:12.417Z,9.09
2018-11-14T14:47:40.822Z,9.01
2018-11-14T14:50:11.284Z,8.96
2018-11-14T14:52:40.435Z,8.89
2018-11-14T14:55:10.995Z,8.78
2018-11-14T14:57:39.435Z,8.77
2018-11-14T15:00:14.080Z,8.70
2018-11-14T15:02:43.039Z,8.59
2018-11-14T15:05:12.368Z,8.53
2018-11-14T15:07:40.867Z,8.51
2018-11-14T15:10:12.090Z,8.44
2018-11-14T15:12:40.670Z,8.40
2018-11-14T15:15:09.086Z,8.26
2018-11-14T15:17:37.658Z,8.13
2018-11-14T15:20:09.496Z,8.13
2018-11-14T15:22:38.189Z,8.03
2018-11-14T15:25:08.381Z,7.99
2018-11-14T15:27:38.071Z,8.10
2018-11-14T15:30:08.739Z,7.95
2018-11-14T15:32:37.498Z,7.80
2018-11-14T15:35:07.337Z,7.73
2018-11-14T15:37:36.146Z,7.67
2018-11-14T15:40:05.619Z,7.54
2018-11-14T15:42:35.657Z,7.50
2018-11-14T15:45:04.250Z,7.43
2018-11-14T15:47:33.452Z,7.35
2018-11-14T15:50:02.015Z,7.23
2018-11-14T15:52:30.356Z,7.11
2018-11-14T15:54:58.716Z,7.08
2018-11-14T15:57:27.027Z,7.15
2018-11-14T15:59:55.502Z,7.42
2018-11-14T16:02:23.880Z,7.37
2018-11-14T16:04:52.221Z,7.31
2018-11-14T16:07:20.704Z,7.23
2018-11-14T16:09:49.157Z,7.19
2018-11-14T16:12:17.665Z,6.94
2018-11-14T16:14:46.101Z,6.99
2018-11-14T16:17:14.501Z,6.91
2018-11-14T16:19:43.020Z,6.92
2018-11-14T16:22:11.337Z,6.89
2018-11-14T16:24:39.756Z,6.67
2018-11-14T16:27:08.026Z,6.56
2018-11-14T16:29:36.368Z,6.29
2018-11-14T16:32:04.716Z,5.97
2018-11-14T16:34:33.115Z,6.15
2018-11-14T16:37:01.387Z,6.25
2018-11-14T16:39:29.724Z,6.19
2018-11-14T16:41:58.082Z,6.31
2018-11-14T16:44:33.651Z,6.26
2018-11-14T16:47:02.208Z,6.31
2018-11-14T16:49:30.644Z,6.30
2018-11-14T16:51:58.955Z,6.52
2018-11-14T16:54:27.264Z,6.52
2018-11-14T16:56:55.804Z,6.44
2018-11-14T16:59:24.392Z,6.44
2018-11-14T17:01:52.673Z,6.48
2018-11-14T17:04:21.091Z,6.78
2018-11-14T17:06:49.700Z,6.76
2018-11-14T17:09:18.056Z,6.77
2018-11-14T17:11:46.437Z,6.73
2018-11-14T17:14:14.925Z,6.67
2018-11-14T17:16:43.221Z,6.69
2018-11-14T17:19:11.646Z,6.62
2018-11-14T17:21:40.134Z,6.70
2018-11-14T17:24:08.611Z,6.69
2018-11-14T17:26:37.193Z,6.75
2018-11-14T17:29:05.650Z,6.81
2018-11-14T17:31:34.036Z,6.71
2018-11-14T17:34:02.422Z,6.73
2018-11-14T17:36:30.774Z,6.70
2018-11-14T17:38:59.167Z,6.63
2018-11-14T17:41:27.761Z,6.62
2018-11-14T17:43:56.163Z,6.55
2018-11-14T17:46:25.038Z,6.60
2018-11-14T17:48:54.020Z,6.56
2018-11-14T17:51:22.338Z,6.51
2018-11-14T17:53:50.742Z,6.44
2018-11-14T17:56:19.151Z,6.62
2018-11-14T17:58:47.455Z,6.48
2018-11-14T18:01:20.788Z,6.44
2018-11-14T18:03:49.250Z,6.57
2018-11-14T18:06:17.941Z,6.54
2018-11-14T18:08:46.593Z,6.63
2018-11-14T18:11:17.116Z,6.58
2018-11-14T18:13:47.698Z,6.66
2018-11-14T18:16:16.589Z,6.62
2018-11-14T18:18:45.263Z,6.77
2018-11-14T18:21:13.677Z,6.58
2018-11-14T18:23:42.007Z,6.57
2018-11-14T18:26:10.495Z,6.51
2018-11-14T18:28:39.046Z,6.33
2018-11-14T18:31:07.511Z,6.35
2018-11-14T18:33:35.972Z,6.27
2018-11-14T18:36:04.980Z,6.16
2018-11-14T18:38:35.235Z,6.02
2018-11-14T18:41:05.837Z,5.94
2018-11-14T18:43:34.931Z,5.83
2018-11-14T18:46:03.343Z,5.86
2018-11-14T18:48:31.730Z,5.93
2018-11-14T18:51:00.089Z,5.95
2018-11-14T18:53:28.600Z,5.91
2018-11-14T18:55:56.967Z,5.94
2018-11-14T18:58:25.503Z,5.79
2018-11-14T19:00:53.971Z,5.60
2018-11-14T19:03:22.581Z,5.63
2018-11-14T19:05:51.003Z,5.74
2018-11-14T19:08:19.480Z,5.85
2018-11-14T19:10:48.438Z,5.69
2018-11-14T19:13:16.870Z,5.50
2018-11-14T19:15:45.208Z,5.43
2018-11-14T19:18:13.765Z,5.36
2018-11-14T19:20:42.362Z,5.37
2018-11-14T19:23:11.199Z,5.47
2018-11-14T19:25:39.531Z,5.41
2018-11-14T19:28:08.508Z,5.26
2018-11-14T19:30:38.025Z,5.24
2018-11-14T19:33:06.341Z,5.03
2018-11-14T19:35:34.885Z,4.93
2018-11-14T19:38:03.500Z,4.92
2018-11-14T19:40:34.354Z,4.82
2018-11-14T19:43:03.860Z,4.93
2018-11-14T19:45:33.839Z,4.92
2018-11-14T19:48:03.087Z,4.73
2018-11-14T19:50:34.202Z,4.91
2018-11-14T19:53:04.036Z,4.66
2018-11-14T19:55:33.195Z,4.48
2018-11-14T19:58:03.092Z,4.25
2018-11-14T20:00:33.264Z,4.13
2018-11-14T20:03:01.607Z,4.15
2018-11-14T20:05:30.233Z,4.07
2018-11-14T20:07:59.067Z,3.81
2018-11-14T20:10:30.575Z,3.91
2018-11-14T20:12:59.248Z,4.02
2018-11-14T20:15:29.106Z,4.35
2018-11-14T20:17:57.436Z,4.36
2018-11-14T20:20:27.360Z,4.50
2018-11-14T20:22:55.975Z,4.50
2018-11-14T20:25:24.322Z,4.17
2018-11-14T20:27:53.349Z,4.22
2018-11-14T20:30:23.777Z,4.28
2018-11-14T20:32:53.046Z,4.31
2018-11-14T20:35:22.486Z,4.17
2018-11-14T20:37:50.800Z,4.33
2018-11-14T20:40:20.371Z,4.40
2018-11-14T20:42:49.796Z,4.10
2018-11-14T20:45:20.961Z,4.11
2018-11-14T20:47:49.303Z,4.08
2018-11-14T20:50:21.107Z,4.06
2018-11-14T20:52:52.891Z,4.14
2018-11-14T20:55:21.214Z,4.25
2018-11-14T20:57:49.623Z,4.19
2018-11-14T21:00:24.249Z,4.15
2018-11-14T21:02:52.842Z,4.09
2018-11-14T21:05:21.336Z,4.24
2018-11-14T21:07:49.719Z,4.38
2018-11-14T21:10:19.419Z,4.33
2018-11-14T21:12:48.439Z,4.32
2018-11-14T21:15:19.079Z,4.01
2018-11-14T21:17:47.953Z,3.77
2018-11-14T21:20:16.267Z,3.74
2018-11-14T21:22:44.742Z,3.93
2018-11-14T21:25:16.344Z,4.14
2018-11-14T21:27:45.740Z,4.15
2018-11-14T21:30:17.293Z,4.07
2018-11-14T21:32:46.293Z,3.90
2018-11-14T21:35:18.067Z,3.99
2018-11-14T21:37:47.655Z,4.11
2018-11-14T21:40:16.026Z,4.03
2018-11-14T21:42:45.208Z,4.22
2018-11-14T21:45:15.650Z,4.13
2018-11-14T21:47:49.484Z,4.12
2018-11-14T21:50:19.642Z,4.48
2018-11-14T21:52:48.366Z,4.61
2018-11-14T21:55:17.172Z,4.73
2018-11-14T21:57:45.498Z,4.82
2018-11-14T22:00:16.092Z,4.77
2018-11-14T22:02:45.861Z,4.66
2018-11-14T22:05:14.839Z,5.02
2018-11-14T22:07:43.114Z,5.35
2018-11-14T22:10:15.618Z,5.30
2018-11-14T22:12:44.477Z,5.48
2018-11-14T22:15:13.499Z,5.57
2018-11-14T22:17:41.970Z,5.68
2018-11-14T22:20:12.671Z,5.66
2018-11-14T22:22:41.880Z,5.65
2018-11-14T22:25:10.958Z,5.78
2018-11-14T22:27:39.367Z,5.83
2018-11-14T22:30:10.779Z,5.82
2018-11-14T22:32:39.132Z,5.74
2018-11-14T22:35:08.824Z,5.82
2018-11-14T22:37:37.269Z,5.61
2018-11-14T22:40:06.463Z,5.70
2018-11-14T22:42:34.956Z,5.88
2018-11-14T22:45:03.322Z,5.79
2018-11-14T22:47:31.612Z,5.67
2018-11-14T22:49:59.912Z,5.66
2018-11-14T22:52:28.204Z,5.59
2018-11-14T22:54:56.763Z,5.56
2018-11-14T22:57:25.334Z,5.61
2018-11-14T22:59:53.903Z,5.69
2018-11-14T23:02:22.371Z,5.65
2018-11-14T23:04:50.722Z,5.75
2018-11-14T23:07:18.990Z,5.64
2018-11-14T23:09:47.338Z,5.67
2018-11-14T23:12:15.550Z,5.62
2018-11-14T23:14:43.879Z,5.47
2018-11-14T23:17:12.462Z,5.56
2018-11-14T23:19:40.809Z,5.50
2018-11-14T23:22:09.121Z,5.64
2018-11-14T23:24:37.442Z,5.62
2018-11-14T23:27:06.099Z,5.58
2018-11-14T23:29:34.438Z,5.66
2018-11-14T23:32:02.739Z,5.65
2018-11-14T23:34:31.038Z,5.46
2018-11-14T23:36:59.392Z,5.59
2018-11-14T23:39:27.784Z,5.40
2018-11-14T23:41:56.087Z,5.47
2018-11-14T23:44:24.398Z,5.68
2018-11-14T23:46:52.729Z,5.61
2018-11-14T23:49:21.185Z,5.59
2018-11-14T23:51:49.676Z,5.61
2018-11-14T23:54:17.970Z,5.53
2018-11-14T23:56:46.288Z,5.51
2018-11-14T23:59:14.604Z,5.63
